Latest Weather Observations for Hamilton Island

IDQ60801

Issued at 7:02 am EST Thursday 25 May 2017 (issued every 30 minutes, with the page automatically refreshed every 10 minutes)

About weather observations | Map of weather stations | Latest weather observations for QLD | Other Formats
Station Details ID: 033106 Name: HAMILTON ISLAND AIRPORT Lat: -20.37 Lon: 148.95 Height: 58.66 m
Data from the previous 72 hours. | See also: Recent months at Hamilton Island
Date/Time
EST
Temp
°C
App
Temp
°C
Dew
Point
°C
Rel
Hum
%
Delta-T
°C
Wind Press
QNH
hPa
Press
MSL
hPa
Rain since
9am
mm
Dir  Spd
km/h
Gust
km/h
Spd
kts
Gust
kts
25/07:00am 21.1 20.6 19.2 89 1.2 SSE 20 24 11 13 1017.8 - 0.0
25/06:30am 20.9 20.0 19.0 89 1.2 S 22 26 12 14 1017.5 - 0.0
25/06:00am 20.9 20.4 19.2 90 1.1 SSE 20 26 11 14 1017.1 1016.9 0.0
25/05:30am 20.6 20.0 18.9 90 1.1 S 20 24 11 13 1016.7 - 0.0
25/05:00am 20.7 19.7 18.8 89 1.2 S 22 28 12 15 1016.6 - 0.0
25/04:30am 20.6 19.6 18.9 90 1.1 S 22 28 12 15 1016.5 - 0.0
25/04:00am 21.1 20.8 19.6 91 1.0 SSE 20 26 11 14 1016.3 - 0.0
25/03:30am 21.1 21.4 19.7 92 0.9 SSE 17 20 9 11 1016.5 - 0.0
25/03:00am 21.1 21.1 19.7 92 0.9 SSE 19 20 10 11 1016.6 1016.4 0.0
25/02:30am 21.2 21.2 19.8 92 0.9 SSE 19 20 10 11 1016.8 - 0.0
25/02:00am 21.2 21.3 20.0 93 0.8 SSE 19 20 10 11 1017.1 - 0.0
25/01:30am 21.3 21.7 19.9 92 0.9 SSE 17 20 9 11 1017.5 - 0.0
25/01:00am 21.4 21.5 20.0 92 0.9 SSE 19 22 10 12 1017.7 - 0.0
25/12:30am 21.4 21.3 20.0 92 0.9 SSE 20 24 11 13 1017.9 - 0.0
25/12:00am 21.8 21.3 19.9 89 1.2 SSE 22 24 12 13 1018.2 1018.0 0.0
 
Date/Time
EST
Temp
°C
App
Temp
°C
Dew
Point
°C
Rel
Hum
%
Delta-T
°C
Wind Press
QNH
hPa
Press
MSL
hPa
Rain since
9am
mm
Dir  Spd
km/h
Gust
km/h
Spd
kts
Gust
kts
24/11:30pm 22.0 20.4 19.2 84 1.8 SSE 26 28 14 15 1018.3 - 0.0
24/11:00pm 21.8 20.8 18.8 83 1.9 SE 22 28 12 15 1018.5 - 0.0
24/10:30pm 21.9 20.1 19.5 86 1.5 SE 28 30 15 16 1018.5 - 0.0
24/10:00pm 22.0 20.0 19.9 88 1.3 SE 30 32 16 17 1018.5 - 0.0
24/09:30pm 21.9 19.3 19.6 87 1.5 SSE 32 35 17 19 1018.5 - 0.0
24/09:00pm 21.8 19.8 19.9 89 1.2 SSE 30 33 16 18 1018.5 1018.3 0.0
24/08:30pm 22.0 19.8 19.5 86 1.6 SSE 30 35 16 19 1018.6 - 0.0
24/08:00pm 21.7 19.8 19.4 87 1.5 SSE 28 33 15 18 1018.6 - 0.0
24/07:30pm 21.9 19.7 19.6 87 1.5 SSE 30 33 16 18 1018.4 - 0.0
24/07:00pm 21.9 20.1 19.6 87 1.5 SSE 28 32 15 17 1018.3 - 0.0
24/06:30pm 21.9 20.6 19.8 88 1.3 SSE 26 30 14 16 1018.0 - 0.0
24/06:00pm 21.9 20.5 19.6 87 1.5 SSE 26 32 14 17 1017.7 1017.5 0.0
24/05:30pm 21.9 19.6 19.3 85 1.7 SSE 30 33 16 18 1017.4 - 0.0
24/05:00pm 22.0 20.0 19.2 84 1.8 SSE 28 33 15 18 1017.2 - 0.0
24/04:30pm 22.2 20.7 19.4 84 1.8 SSE 26 32 14 17 1017.0 - 0.0
24/04:00pm 22.4 21.1 19.8 85 1.7 SSE 26 32 14 17 1016.9 - 0.0
24/03:30pm 22.6 20.3 19.4 82 2.0 SSE 30 35 16 19 1017.0 - 0.0
24/03:00pm 22.8 20.3 19.8 83 1.9 SSE 32 35 17 19 1016.9 1016.7 0.0
24/02:30pm 22.9 21.2 19.7 82 2.1 SSE 28 33 15 18 1017.1 - 0.0
24/02:00pm 23.1 22.0 20.2 84 1.9 SSE 26 33 14 18 1017.1 - 0.0
24/01:30pm 23.5 22.1 20.4 83 2.0 SSE 28 32 15 17 1017.3 - 0.0
24/01:00pm 23.3 21.6 19.9 81 2.2 SSE 28 32 15 17 1017.7 - 0.0
24/12:30pm 23.3 21.7 20.1 82 2.1 SSE 28 33 15 18 1018.3 - 0.0
24/12:00pm 23.3 21.8 20.2 83 2.0 SSE 28 33 15 18 1018.8 1018.6 0.0
24/11:30am 23.2 21.3 20.2 83 1.9 SSE 30 35 16 19 1019.1 - 0.0
24/11:00am 23.2 21.3 20.2 83 1.9 SSE 30 35 16 19 1019.6 - 0.0
24/10:59am 23.3 21.6 20.6 85 1.8 SSE 30 35 16 19 1019.6 - 0.0
24/10:43am 23.1 21.3 20.4 85 1.8 SSE 30 35 16 19 1019.8 - 0.0
24/10:33am 23.1 21.4 20.6 86 1.6 SSE 30 35 16 19 1019.8 - 0.0
24/10:30am 23.1 21.5 20.8 87 1.5 SSE 30 35 16 19 1019.8 - 0.0
24/10:00am 22.7 20.5 20.4 87 1.5 SSE 32 37 17 20 1020.0 - 0.0
24/09:30am 22.7 20.6 20.6 88 1.4 SSE 32 37 17 20 1020.0 - 0.0
24/09:00am 22.3 20.0 20.2 88 1.4 SSE 32 39 17 21 1019.8 1019.5 0.0
24/08:42am 22.4 20.3 20.5 89 1.2 SSE 32 39 17 21 1019.8 - 0.0
24/08:40am 22.5 20.5 20.8 90 1.1 SSE 32 39 17 21 1019.7 - 0.0
24/08:30am 21.8 19.4 20.3 91 1.0 SSE 33 39 18 21 1019.6 - 0.0
24/08:00am 21.8 19.6 20.4 92 0.9 SSE 32 41 17 22 1019.4 - 0.0
24/07:30am 21.7 19.9 20.3 92 0.9 SSE 30 37 16 20 1019.0 - 0.0
24/07:00am 21.7 20.1 20.7 94 0.6 SSE 30 35 16 19 1018.8 - 0.0
24/06:33am 21.6 19.9 20.6 94 0.6 SSE 30 37 16 20 1018.5 - 0.0
24/06:30am 21.6 19.9 20.6 94 0.6 SSE 30 35 16 19 1018.5 - 0.0
24/06:07am 21.5 19.8 20.5 94 0.6 SSE 30 35 16 19 1018.2 - 0.0
24/06:00am 21.5 19.8 20.5 94 0.6 SSE 30 35 16 19 1018.2 1018.0 0.0
24/05:57am 21.6 19.9 20.6 94 0.6 SSE 30 35 16 19 1018.1 - 0.0
24/05:30am 21.6 20.7 20.6 94 0.6 SSE 26 32 14 17 1018.0 - 0.0
24/05:00am 21.7 20.9 20.9 95 0.5 SSE 26 32 14 17 1017.9 - 0.0
24/04:59am 21.7 20.8 20.7 94 0.6 SSE 26 32 14 17 1017.9 - 0.0
24/04:47am 21.6 20.8 20.8 95 0.5 SSE 26 32 14 17 1017.8 - 0.0
24/04:30am 21.8 21.0 20.8 94 0.7 SSE 26 30 14 16 1017.7 - 0.0
24/04:00am 22.2 20.1 19.7 86 1.6 SE 30 35 16 19 1017.5 - 0.0
24/03:30am 22.1 20.3 19.5 85 1.7 SE 28 32 15 17 1017.5 - 0.0
24/03:00am 22.3 20.7 20.0 87 1.5 SE 28 33 15 18 1017.4 1017.2 0.0
24/02:30am 22.3 19.8 19.7 85 1.7 SE 32 37 17 20 1017.5 - 0.0
24/02:00am 22.3 20.0 20.2 88 1.4 SE 32 35 17 19 1017.7 - 0.0
24/01:30am 22.3 19.9 20.0 87 1.5 SE 32 35 17 19 1017.7 - 0.0
24/01:00am 22.4 20.7 20.5 89 1.2 SE 30 33 16 18 1017.7 - 0.0
24/12:30am 22.5 20.4 20.6 89 1.2 SE 32 35 17 19 1017.8 - 0.0
24/12:00am 22.4 20.6 20.3 88 1.4 SE 30 35 16 19 1018.1 1017.9 0.0
 
Date/Time
EST
Temp
°C
App
Temp
°C
Dew
Point
°C
Rel
Hum
%
Delta-T
°C
Wind Press
QNH
hPa
Press
MSL
hPa
Rain since
9am
mm
Dir  Spd
km/h
Gust
km/h
Spd
kts
Gust
kts
23/11:30pm 22.6 20.4 20.3 87 1.5 SE 32 33 17 18 1018.4 - 0.0
23/11:00pm 22.7 20.2 20.2 86 1.6 SE 33 37 18 20 1018.5 - 0.0
23/10:30pm 22.7 20.4 20.6 88 1.4 SE 33 39 18 21 1018.5 - 0.0
23/10:00pm 22.7 20.4 20.2 86 1.6 SE 32 37 17 20 1018.6 - 0.0
23/09:30pm 22.7 20.9 21.2 91 1.0 SE 32 35 17 19 1018.5 - 0.0
23/09:00pm 22.7 20.9 21.5 93 0.8 SE 33 37 18 20 1018.4 1018.2 0.0
23/08:56pm 22.6 20.6 21.2 92 0.9 SE 33 39 18 21 1018.4 - 0.0
23/08:37pm 22.8 20.7 21.6 93 0.8 SSE 35 41 19 22 1018.3 - 0.0
23/08:30pm 22.9 21.1 21.5 92 0.9 SSE 33 39 18 21 1018.3 - 0.0
23/08:00pm 22.9 21.5 21.2 90 1.1 SE 30 33 16 18 1018.3 - 0.0
23/07:50pm 22.9 21.0 21.0 89 1.2 SE 32 35 17 19 1018.2 - 0.0
23/07:30pm 22.9 21.3 20.8 88 1.4 SE 30 37 16 20 1018.1 - 0.0
23/07:23pm 23.0 21.7 21.4 91 1.1 SE 30 39 16 21 1018.1 - 0.0
23/07:00pm 22.6 21.3 21.4 93 0.8 SSE 30 33 16 18 1017.9 - 0.0
23/06:42pm 22.7 21.0 21.7 94 0.7 SSE 33 37 18 20 1017.7 - 0.0
23/06:30pm 22.6 20.8 21.6 94 0.7 SSE 33 39 18 21 1017.6 - 0.0
23/06:15pm 22.8 21.1 21.3 91 1.0 SSE 32 35 17 19 1017.6 - 0.0
23/06:00pm 22.8 20.8 21.1 90 1.1 SSE 33 39 18 21 1017.4 1017.2 0.0
23/05:30pm 22.9 20.9 21.2 90 1.1 SE 33 39 18 21 1017.2 - 0.0
23/05:13pm 22.9 20.5 21.0 89 1.2 SE 35 41 19 22 1016.9 - 0.0
23/05:00pm 22.9 20.4 20.8 88 1.4 SE 35 41 19 22 1016.9 - 0.0
23/04:30pm 23.1 21.3 21.5 91 1.1 SE 33 39 18 21 1016.7 - 0.0
23/04:20pm 23.1 20.8 21.2 89 1.2 SE 35 41 19 22 1016.7 - 0.0
23/04:13pm 23.2 20.8 21.1 88 1.4 SE 35 41 19 22 1016.7 - 0.0
23/04:02pm 23.3 21.0 21.2 88 1.4 SE 35 41 19 22 1016.6 - 0.0
23/04:00pm 23.2 20.8 21.1 88 1.4 SE 35 41 19 22 1016.6 - 0.0
23/03:58pm 23.2 20.7 20.9 87 1.5 SE 35 41 19 22 1016.6 - 0.0
23/03:30pm 23.5 21.3 21.4 88 1.4 SE 35 41 19 22 1016.3 - 0.0
23/03:00pm 23.3 21.1 21.4 89 1.3 SSE 35 39 19 21 1016.3 1016.1 0.0
23/02:30pm 23.7 21.9 21.6 88 1.4 SE 33 39 18 21 1016.4 - 0.0
23/02:00pm 23.7 20.9 21.8 89 1.3 SE 39 43 21 23 1016.5 - 0.0
23/01:49pm 23.1 19.4 21.5 91 1.1 SSE 43 46 23 25 1016.6 - 0.0
23/01:47pm 23.2 19.5 21.6 91 1.1 SSE 43 46 23 25 1016.6 - 0.0
23/01:34pm 23.3 19.6 21.6 90 1.1 SSE 43 48 23 26 1016.7 - 0.0
23/01:30pm 23.4 20.2 21.7 90 1.1 SSE 41 46 22 25 1016.7 - 0.0
23/01:00pm 23.7 20.9 21.8 89 1.3 SSE 39 46 21 25 1017.1 - 0.0
23/12:55pm 23.7 20.9 21.8 89 1.3 SSE 39 46 21 25 1017.1 - 0.0
23/12:30pm 23.4 21.7 21.7 90 1.1 SSE 33 43 18 23 1017.5 - 0.0
23/12:00pm 23.7 21.5 21.4 87 1.5 SSE 35 39 19 21 1017.8 1017.6 0.0
23/11:49am 23.6 21.3 21.3 87 1.5 SSE 35 44 19 24 1018.0 - 0.0
23/11:30am 24.8 23.2 21.9 84 1.9 SE 33 39 18 21 1018.2 - 0.0
23/11:00am 24.8 23.2 21.9 84 1.9 SE 33 39 18 21 1018.5 - 0.0
23/10:30am 24.6 22.7 22.1 86 1.7 ESE 35 44 19 24 1018.8 - 0.0
23/10:05am 24.3 22.5 22.2 88 1.4 SE 35 39 19 21 1019.0 - 0.0
23/10:00am 24.2 22.0 21.5 85 1.8 SE 35 41 19 22 1019.1 - 0.0
23/09:30am 22.7 22.1 21.9 95 0.5 SSE 28 35 15 19 1019.2 - 0.0
23/09:00am 22.8 21.9 22.1 96 0.5 SSE 30 37 16 20 1019.0 1018.8 14.0
23/08:30am 22.5 20.5 21.8 96 0.5 SSE 35 43 19 23 1018.9 - 14.0
23/08:00am 22.3 20.9 22.0 98 0.2 SSE 32 39 17 21 1018.4 - 14.0
23/07:58am 22.4 21.2 22.2 99 0.1 SSE 32 39 17 21 1018.4 - 14.0
23/07:39am 22.1 20.5 21.8 98 0.2 SSE 33 41 18 22 1018.3 - 13.4
23/07:30am 22.2 20.0 21.5 96 0.5 SSE 35 43 19 23 1018.2 - 12.8
23/07:08am 22.6 20.6 21.9 96 0.5 SE 35 43 19 23 1018.0 - 12.8
23/07:03am 22.5 21.0 22.0 97 0.3 SE 33 43 18 23 1018.0 - 12.8
23/07:00am 22.4 21.1 22.1 98 0.2 SE 32 43 17 23 1017.9 - 12.8
23/06:57am 22.4 21.9 22.2 99 0.1 SE 28 39 15 21 1018.0 - 12.8
23/06:30am 21.9 19.3 21.4 97 0.3 ESE 37 48 20 26 1017.8 - 11.0
23/06:28am 21.8 18.8 21.3 97 0.3 ESE 39 48 21 26 1017.7 - 11.0
23/06:00am 22.2 21.2 21.9 98 0.2 SSE 30 35 16 19 1017.3 1017.1 9.4
23/05:52am 22.3 19.9 21.8 97 0.3 SE 37 43 20 23 1017.2 - 9.0
23/05:39am 22.9 20.8 21.7 93 0.8 SE 35 41 19 22 1017.0 - 8.2
23/05:30am 22.9 21.0 22.1 95 0.5 SE 35 39 19 21 1017.0 - 8.2
23/05:22am 22.7 21.2 22.0 96 0.5 SE 33 41 18 22 1017.0 - 8.2
23/05:06am 22.3 19.5 21.8 97 0.3 SE 39 46 21 25 1016.9 - 8.2
23/05:00am 22.5 19.7 21.8 96 0.5 SE 39 46 21 25 1016.8 - 8.2
23/04:45am 22.7 20.0 21.9 95 0.5 SE 39 46 21 25 1016.8 - 8.2
23/04:32am 22.9 20.4 21.7 93 0.8 SE 37 43 20 23 1016.6 - 8.2
23/04:30am 22.9 20.4 21.7 93 0.8 SE 37 43 20 23 1016.6 - 8.2
23/04:20am 22.8 19.6 21.8 94 0.7 SE 41 48 22 26 1016.6 - 8.2
23/04:00am 22.8 19.9 21.6 93 0.8 SE 39 46 21 25 1016.5 - 8.2
23/03:42am 22.6 19.7 21.6 94 0.7 SE 39 44 21 24 1016.5 - 8.2
23/03:30am 22.5 18.8 21.5 94 0.7 SE 43 48 23 26 1016.5 - 8.2
23/03:24am 22.6 19.1 21.9 96 0.5 SE 43 48 23 26 1016.3 - 8.2
23/03:00am 22.8 21.4 22.3 97 0.3 SE 33 41 18 22 1016.4 1016.2 8.0
23/02:50am 22.4 22.7 22.2 99 0.1 SE 24 28 13 15 1016.6 - 8.0
23/02:49am 22.4 22.7 22.2 99 0.1 SE 24 28 13 15 1016.6 - 8.0
23/02:32am 22.2 20.3 22.0 99 0.1 ESE 35 43 19 23 1016.8 - 8.0
23/02:30am 22.2 19.9 22.0 99 0.1 ESE 37 48 20 26 1016.8 - 8.0
23/02:21am 22.2 19.5 22.0 99 0.1 E 39 57 21 31 1016.8 - 7.0
23/02:06am 22.3 18.4 21.5 95 0.5 E 44 57 24 31 1016.6 - 2.2
23/02:00am 22.2 18.3 21.2 94 0.7 E 43 48 23 26 1016.6 - 2.0
23/01:58am 22.4 19.0 21.4 94 0.7 E 41 48 22 26 1016.6 - 2.0
23/01:30am 23.3 21.3 21.9 92 0.9 SE 35 41 19 22 1016.8 - 2.0
23/01:00am 23.1 21.1 21.9 93 0.8 SE 35 43 19 23 1016.9 - 2.0
23/12:55am 23.0 20.9 21.6 92 0.9 SE 35 41 19 22 1016.9 - 2.0
23/12:30am 22.8 20.6 21.4 92 0.9 SE 35 41 19 22 1017.0 - 2.0
23/12:00am 22.5 20.8 21.3 93 0.8 ESE 32 37 17 20 1017.2 1017.0 2.0
 
Date/Time
EST
Temp
°C
App
Temp
°C
Dew
Point
°C
Rel
Hum
%
Delta-T
°C
Wind Press
QNH
hPa
Press
MSL
hPa
Rain since
9am
mm
Dir  Spd
km/h
Gust
km/h
Spd
kts
Gust
kts
22/11:56pm 22.3 19.8 20.9 92 0.9 ESE 35 43 19 23 1017.2 - 2.0
22/11:50pm 22.3 18.9 20.6 90 1.1 ESE 39 50 21 27 1017.2 - 2.0
22/11:30pm 22.0 18.3 21.5 97 0.3 SE 43 57 23 31 1017.5 - 2.0
22/11:27pm 22.1 18.7 21.4 96 0.5 SE 41 57 22 31 1017.4 - 2.0
22/11:24pm 22.3 19.7 21.5 95 0.5 SE 37 57 20 31 1017.3 - 1.6
22/11:00pm 23.1 21.0 21.7 92 0.9 SE 35 41 19 22 1017.5 - 1.0
22/10:30pm 23.2 19.2 21.3 89 1.3 SE 44 52 24 28 1017.3 - 1.0
22/10:00pm 23.0 20.9 21.6 92 0.9 SE 35 41 19 22 1017.5 - 1.0
22/09:30pm 22.9 20.4 21.7 93 0.8 SE 37 43 20 23 1017.6 - 1.0
22/09:00pm 22.6 19.5 21.2 92 0.9 SE 39 46 21 25 1017.6 1017.4 1.0
22/08:44pm 22.6 19.7 21.6 94 0.7 SE 39 46 21 25 1017.5 - 1.0
22/08:38pm 22.5 20.0 21.7 95 0.5 SE 37 44 20 24 1017.6 - 1.0
22/08:30pm 22.3 18.5 21.3 94 0.7 SE 43 54 23 29 1017.6 - 1.0
22/08:23pm 22.4 18.4 20.9 91 1.0 SE 43 54 23 29 1017.5 - 1.0
22/08:04pm 22.8 19.1 21.6 93 0.8 SE 43 48 23 26 1017.4 - 1.0
22/08:00pm 22.7 18.9 21.3 92 0.9 SE 43 48 23 26 1017.3 - 1.0
22/07:30pm 22.6 21.0 21.8 95 0.5 SSE 33 39 18 21 1017.1 - 1.0
22/07:00pm 22.5 19.6 21.5 94 0.7 SE 39 50 21 27 1016.6 - 1.0
22/06:55pm 22.5 19.3 21.7 95 0.5 SE 41 46 22 25 1016.6 - 1.0
22/06:35pm 22.8 19.9 22.3 97 0.3 SSE 41 48 22 26 1016.4 - 0.8
22/06:30pm 23.0 20.0 22.2 95 0.5 SSE 41 46 22 25 1016.3 - 0.2
22/06:00pm 23.1 20.1 22.1 94 0.7 SSE 41 48 22 26 1016.0 1015.8 0.2
22/05:30pm 23.0 19.9 22.0 94 0.7 SSE 41 48 22 26 1015.9 - 0.2
22/05:00pm 23.0 19.5 21.8 93 0.8 SSE 43 52 23 28 1015.5 - 0.2
22/04:30pm 23.1 19.5 21.7 92 0.9 SSE 43 46 23 25 1015.3 - 0.2
22/04:00pm 23.1 19.2 21.5 91 1.1 SSE 44 54 24 29 1015.0 - 0.2
22/03:30pm 23.1 19.2 21.4 90 1.1 SSE 44 50 24 27 1014.9 - 0.2
22/03:00pm 23.1 19.2 21.4 90 1.1 SSE 44 50 24 27 1014.7 1014.5 0.2
22/02:30pm 23.2 19.4 21.3 89 1.3 SSE 43 50 23 27 1014.8 - 0.2
22/02:00pm 23.2 19.2 21.3 89 1.3 SSE 44 50 24 27 1014.9 - 0.2
22/01:30pm 23.1 19.2 21.2 89 1.2 SSE 43 54 23 29 1015.3 - 0.2
22/01:03pm 23.2 19.4 21.3 89 1.3 SSE 43 50 23 27 1015.5 - 0.2
22/01:00pm 23.2 19.3 21.1 88 1.4 SSE 43 50 23 27 1015.5 - 0.2
22/12:43pm 23.4 19.6 21.3 88 1.4 SSE 43 52 23 28 1015.8 - 0.2
22/12:30pm 23.4 19.9 21.1 87 1.5 SSE 41 48 22 26 1015.8 - 0.2
22/12:00pm 23.2 19.8 21.3 89 1.2 SSE 41 50 22 27 1016.3 1016.1 0.2
22/11:30am 22.6 19.5 21.2 92 0.9 SSE 39 50 21 27 1016.6 - 0.2
22/11:00am 22.1 18.7 21.3 95 0.5 SSE 41 50 22 27 1016.9 - 0.2
22/10:30am 21.9 18.8 21.2 96 0.5 SSE 39 48 21 26 1017.4 - 0.0
22/10:25am 21.7 18.4 20.9 95 0.5 SSE 39 48 21 26 1017.4 - 0.0
22/10:03am 21.5 19.3 20.7 95 0.5 SSE 33 43 18 23 1017.5 - 0.0
22/10:00am 21.5 19.3 20.7 95 0.5 SSE 33 43 18 23 1017.5 - 0.0
22/09:30am 22.0 19.5 20.8 93 0.8 SSE 35 43 19 23 1017.8 - 0.0
22/09:00am 21.7 19.1 20.7 94 0.6 SSE 35 48 19 26 1017.7 1017.5 0.0
22/08:49am 22.3 19.2 20.4 89 1.2 SSE 37 44 20 24 1017.6 - 0.0
22/08:30am 22.4 19.6 20.3 88 1.4 SSE 35 44 19 24 1017.5 - 0.0
22/08:00am 22.4 20.0 20.3 88 1.4 SSE 33 41 18 22 1017.3 - 0.0
22/07:30am 22.2 19.7 20.1 88 1.4 SSE 33 43 18 23 1017.2 - 0.0

Other Formats:

Comma delimited format used in spreadsheet applications
http://www.bom.gov.au/fwo/IDQ60801/IDQ60801.94368.axf

JavaScript Object Notation format (JSON) in row-major order
http://www.bom.gov.au/fwo/IDQ60801/IDQ60801.94368.json